createdAt,value
2023-05-19T00:07:32.711Z,81.7638
2023-05-19T00:09:33.672Z,83.0791
2023-05-19T00:10:34.787Z,83.0687
2023-05-19T00:13:37.322Z,82.8638
2023-05-19T00:20:40.060Z,83.2010
2023-05-19T00:21:41.099Z,83.6642
2023-05-19T00:23:42.369Z,81.2328
2023-05-19T00:24:42.912Z,82.8812
2023-05-19T00:25:43.599Z,82.6732
2023-05-19T00:26:44.749Z,82.0917
2023-05-19T00:28:45.662Z,85.6698
2023-05-19T00:29:46.719Z,85.8966
2023-05-19T00:34:49.368Z,83.0235
2023-05-19T00:36:50.043Z,83.6453
2023-05-19T00:37:50.088Z,85.3057
2023-05-19T00:38:50.956Z,82.8953
2023-05-19T00:39:51.941Z,85.9464
2023-05-19T00:40:52.523Z,88.3345
2023-05-19T00:41:52.840Z,85.1606
2023-05-19T00:42:53.300Z,86.0053
2023-05-19T00:43:54.149Z,86.4644
2023-05-19T00:45:54.522Z,86.0046
2023-05-19T00:46:54.772Z,86.2802
2023-05-19T00:48:53.054Z,83.8680
2023-05-19T00:49:53.390Z,84.5331
2023-05-19T00:50:54.376Z,86.9398
2023-05-19T00:51:55.089Z,86.5693
2023-05-19T00:52:57.026Z,86.4906
2023-05-19T01:00:00.524Z,82.4840
2023-05-19T01:05:04.142Z,85.5337
2023-05-19T01:06:04.704Z,85.9005
2023-05-19T01:08:04.549Z,86.9531
2023-05-19T01:10:05.566Z,86.5273
2023-05-19T01:11:06.125Z,85.9516
2023-05-19T01:18:09.122Z,90.3119
2023-05-19T01:25:14.664Z,92.4081
2023-05-19T01:27:15.383Z,90.6910
2023-05-19T01:29:16.427Z,92.0605
2023-05-19T01:37:21.055Z,90.7880
2023-05-19T01:40:21.560Z,88.3294
2023-05-19T01:41:22.479Z,90.0162
2023-05-19T01:42:23.270Z,88.9975
2023-05-19T01:43:23.661Z,89.6752
2023-05-19T01:45:26.309Z,87.9496
2023-05-19T01:47:27.944Z,88.7199
2023-05-19T01:58:35.410Z,88.5726
2023-05-19T01:59:36.504Z,87.5022
2023-05-19T02:00:37.569Z,90.1184
2023-05-19T02:01:38.409Z,90.4981
2023-05-19T02:08:42.002Z,87.8386
2023-05-19T02:10:43.378Z,87.7921
2023-05-19T02:11:44.520Z,89.0344
2023-05-19T02:12:44.664Z,89.7332
2023-05-19T02:13:45.684Z,89.4268
2023-05-19T02:14:46.036Z,90.5238
2023-05-19T02:15:49.077Z,91.3390
2023-05-19T02:16:50.410Z,89.9909
2023-05-19T02:17:51.115Z,89.4512
2023-05-19T02:18:51.537Z,89.7245
2023-05-19T02:19:51.531Z,90.2132
2023-05-19T02:20:52.442Z,89.5423
2023-05-19T02:21:52.988Z,88.1828
2023-05-19T02:22:53.936Z,87.7511
2023-05-19T02:23:54.592Z,87.8250
2023-05-19T02:24:54.639Z,89.5876
2023-05-19T02:25:55.484Z,90.2172
2023-05-19T02:26:55.978Z,90.1889
2023-05-19T02:27:57.350Z,88.7787
2023-05-19T02:28:58.107Z,89.9232
2023-05-19T02:29:58.102Z,91.0480
2023-05-19T02:31:00.069Z,89.7996
2023-05-19T02:32:00.906Z,88.1791
2023-05-19T02:39:03.809Z,86.8845
2023-05-19T02:42:06.234Z,87.3792
2023-05-19T02:44:07.122Z,87.7101
2023-05-19T02:53:19.514Z,88.1249
2023-05-19T02:54:19.723Z,89.0281
2023-05-19T02:55:21.066Z,88.6468
2023-05-19T02:56:22.181Z,86.3796
2023-05-19T02:57:24.166Z,88.5616
2023-05-19T02:58:24.300Z,88.5143
2023-05-19T02:59:25.708Z,87.6944
2023-05-19T03:00:24.937Z,88.8967
2023-05-19T03:01:25.667Z,88.7811
2023-05-19T03:02:26.006Z,88.3316
2023-05-19T03:03:26.651Z,89.0564
2023-05-19T03:04:26.682Z,88.2625
2023-05-19T03:05:28.070Z,87.7060
2023-05-19T03:06:29.066Z,89.0470
2023-05-19T03:11:32.120Z,88.6470
2023-05-19T03:12:32.565Z,88.5808
2023-05-19T03:13:33.489Z,88.0667
2023-05-19T03:15:34.080Z,87.8358
2023-05-19T03:16:35.248Z,87.2199
2023-05-19T03:17:35.593Z,88.4297
2023-05-19T03:18:35.699Z,88.7284
2023-05-19T03:19:37.109Z,87.6098
2023-05-19T03:20:40.922Z,88.1836
2023-05-19T03:21:39.976Z,88.5261
2023-05-19T03:25:42.301Z,86.9942
2023-05-19T03:27:43.017Z,87.5426
2023-05-19T03:28:43.569Z,88.5822
2023-05-19T03:30:43.371Z,88.2047
2023-05-19T03:31:43.492Z,89.0779
2023-05-19T03:32:43.768Z,89.2116
2023-05-19T03:33:44.557Z,89.5642
2023-05-19T03:35:45.741Z,89.7392
2023-05-19T03:36:46.068Z,89.3540
2023-05-19T03:37:46.692Z,88.7913
2023-05-19T03:38:47.801Z,89.7859
2023-05-19T03:44:50.264Z,88.6585
2023-05-19T03:45:50.926Z,88.6457
2023-05-19T03:46:52.717Z,89.0379
2023-05-19T03:47:53.412Z,87.6681
2023-05-19T03:48:54.979Z,87.5670
2023-05-19T03:53:55.600Z,90.7493
2023-05-19T03:54:57.020Z,91.6378
2023-05-19T04:04:01.936Z,90.0892
2023-05-19T04:09:04.212Z,89.8982
2023-05-19T04:10:04.570Z,90.0661
2023-05-19T04:12:07.721Z,91.4893
2023-05-19T04:14:09.666Z,92.0932
2023-05-19T04:15:09.802Z,92.2299
2023-05-19T04:16:11.425Z,92.7927
2023-05-19T04:18:11.872Z,93.8493
2023-05-19T04:20:13.182Z,93.2671
2023-05-19T04:21:13.864Z,91.1567
2023-05-19T04:22:15.057Z,91.7628
2023-05-19T04:23:15.814Z,91.8126
2023-05-19T04:24:17.327Z,92.0434
2023-05-19T04:25:17.490Z,92.4804
2023-05-19T04:26:17.964Z,93.2480
2023-05-19T04:27:19.163Z,91.6510
2023-05-19T04:30:21.929Z,92.8284
2023-05-19T04:31:22.051Z,91.6749
2023-05-19T04:32:22.851Z,92.7587
2023-05-19T04:33:24.270Z,92.3132
2023-05-19T04:34:25.318Z,91.8100
2023-05-19T04:38:26.847Z,90.9589
2023-05-19T04:39:27.489Z,90.9422
2023-05-19T04:40:27.806Z,89.9914
2023-05-19T04:41:28.759Z,89.2057
2023-05-19T04:42:29.883Z,88.9135
2023-05-19T04:43:30.160Z,89.0724
2023-05-19T04:44:31.559Z,88.8315
2023-05-19T04:45:31.738Z,89.0639
2023-05-19T04:47:34.627Z,88.7442
2023-05-19T04:53:39.282Z,86.8069
2023-05-19T04:54:39.511Z,87.8412
2023-05-19T04:55:39.873Z,87.5210
2023-05-19T04:56:40.443Z,88.0597
2023-05-19T05:04:43.595Z,86.0750
2023-05-19T05:05:45.365Z,87.1379
2023-05-19T05:07:45.593Z,85.4563
2023-05-19T05:08:46.688Z,84.7085
2023-05-19T05:09:47.093Z,85.3344
2023-05-19T05:10:47.706Z,84.8271
2023-05-19T05:22:54.908Z,83.1846
2023-05-19T05:23:56.150Z,83.4652
2023-05-19T05:24:56.251Z,82.7415
2023-05-19T05:25:56.650Z,83.9430
2023-05-19T05:28:59.807Z,83.2367
2023-05-19T05:30:00.298Z,82.2312
2023-05-19T05:31:00.518Z,83.6049
2023-05-19T05:32:00.927Z,83.3262
2023-05-19T05:33:01.270Z,83.4978
2023-05-19T05:34:02.333Z,83.8250
2023-05-19T05:35:03.404Z,85.1558
2023-05-19T05:36:04.882Z,83.4229
2023-05-19T05:37:06.278Z,83.7658
2023-05-19T05:38:07.047Z,84.3365
2023-05-19T05:39:08.397Z,85.9156
2023-05-19T05:40:08.807Z,85.1242
2023-05-19T05:41:09.856Z,84.3874
2023-05-19T05:42:11.063Z,84.6327
2023-05-19T05:43:12.534Z,84.7059
2023-05-19T05:44:12.767Z,84.9808
2023-05-19T05:45:13.212Z,85.7850
2023-05-19T05:56:20.348Z,84.3916
2023-05-19T05:57:20.813Z,85.1038
2023-05-19T05:58:21.726Z,85.6242
2023-05-19T05:59:22.713Z,85.5489
2023-05-19T06:01:22.168Z,87.3917
2023-05-19T06:02:23.786Z,86.2802
2023-05-19T06:03:24.719Z,85.3591
2023-05-19T06:04:26.005Z,85.4150
2023-05-19T06:05:26.446Z,84.2602
2023-05-19T06:06:27.486Z,85.5552
2023-05-19T06:07:28.007Z,84.6888
2023-05-19T06:11:07.230Z,84.1273
2023-05-19T06:12:08.276Z,84.8336
2023-05-19T06:13:08.890Z,84.6732
2023-05-19T06:14:09.516Z,84.6156
2023-05-19T06:15:09.782Z,85.4500
2023-05-19T06:17:12.830Z,85.0643
2023-05-19T06:18:13.850Z,85.1954
2023-05-19T06:23:18.183Z,84.7596
2023-05-19T06:24:18.853Z,84.6603
2023-05-19T06:25:18.878Z,84.2357
2023-05-19T06:29:21.377Z,86.0600
2023-05-19T06:30:21.836Z,86.1186
2023-05-19T06:31:22.930Z,85.2838
2023-05-19T06:32:22.919Z,85.7006
2023-05-19T06:33:25.556Z,85.4623
2023-05-19T06:34:25.681Z,85.2561
2023-05-19T06:39:30.351Z,84.7746
2023-05-19T06:40:31.498Z,86.3323
2023-05-19T06:42:32.022Z,85.5415
2023-05-19T06:43:32.396Z,86.4992
2023-05-19T06:44:33.477Z,85.6646
2023-05-19T06:45:34.216Z,86.9873
2023-05-19T06:46:34.346Z,87.5006
2023-05-19T06:47:35.498Z,86.5918
2023-05-19T06:48:35.784Z,85.0437
2023-05-19T06:49:37.761Z,84.4769
2023-05-19T06:54:39.136Z,84.7716
2023-05-19T06:55:54.356Z,85.9163
2023-05-19T06:56:40.725Z,85.5844
2023-05-19T06:58:43.640Z,84.7959
2023-05-19T06:59:43.934Z,85.4536
2023-05-19T07:00:44.883Z,85.1105
2023-05-19T07:09:47.200Z,83.9564
2023-05-19T07:12:48.598Z,82.6068
2023-05-19T07:15:49.701Z,85.3832
2023-05-19T07:16:50.253Z,83.7481
2023-05-19T07:17:52.120Z,82.4710
2023-05-19T07:18:52.507Z,83.4586
2023-05-19T07:19:53.810Z,82.4379
2023-05-19T07:20:54.102Z,82.3293
2023-05-19T07:21:55.620Z,83.4054
2023-05-19T07:22:55.903Z,83.2937
2023-05-19T07:23:57.113Z,82.5200
2023-05-19T07:26:58.849Z,82.3571
2023-05-19T07:27:59.266Z,81.4520
2023-05-19T07:29:12.203Z,81.8639
2023-05-19T07:30:02.156Z,81.2532
2023-05-19T07:31:03.278Z,82.0061
2023-05-19T07:32:04.074Z,82.5139
2023-05-19T07:33:05.340Z,81.7024
2023-05-19T07:34:06.244Z,80.4941
2023-05-19T07:35:06.575Z,81.2896
2023-05-19T07:36:07.984Z,81.1474
2023-05-19T07:39:11.295Z,82.3966
2023-05-19T07:40:12.006Z,82.6550
2023-05-19T07:41:13.022Z,83.5552
2023-05-19T07:42:13.514Z,80.6073
2023-05-19T07:43:14.702Z,80.0163
2023-05-19T07:44:15.581Z,80.1527
2023-05-19T07:45:16.710Z,80.3318
2023-05-19T07:49:18.357Z,78.2484
2023-05-19T07:50:19.310Z,78.4191
2023-05-19T07:51:19.558Z,77.5477
2023-05-19T07:54:21.657Z,78.7852
2023-05-19T07:55:22.106Z,79.3568
2023-05-19T07:56:22.823Z,78.5734
2023-05-19T07:57:23.207Z,78.1055
2023-05-19T07:58:24.073Z,79.0539
2023-05-19T07:59:25.427Z,77.3006
2023-05-19T08:00:26.070Z,78.0025
2023-05-19T08:01:27.134Z,77.6998
2023-05-19T08:02:27.670Z,78.3126
2023-05-19T08:04:29.651Z,76.7939
2023-05-19T08:05:30.303Z,76.8701
2023-05-19T08:06:30.867Z,78.1553
2023-05-19T08:07:31.354Z,78.5114
2023-05-19T08:12:33.891Z,81.9709
2023-05-19T08:13:34.669Z,81.3855
2023-05-19T08:14:34.962Z,81.0207
2023-05-19T08:15:35.478Z,81.3693
2023-05-19T08:16:36.021Z,79.8730
2023-05-19T08:17:36.928Z,78.3829
2023-05-19T08:18:37.766Z,81.4495
2023-05-19T08:21:38.737Z,80.1748
2023-05-19T08:22:38.971Z,77.9746
2023-05-19T08:23:39.902Z,78.9095
2023-05-19T08:24:40.705Z,80.6321
2023-05-19T08:25:42.358Z,80.1219
2023-05-19T08:26:43.232Z,80.7338
2023-05-19T08:27:44.022Z,79.5283
2023-05-19T08:28:44.969Z,78.3581
2023-05-19T08:29:45.977Z,81.3675
2023-05-19T08:33:47.502Z,79.1621
2023-05-19T08:34:47.883Z,80.4607
2023-05-19T08:35:47.922Z,80.0074
2023-05-19T08:36:49.060Z,80.4193
2023-05-19T08:37:49.155Z,80.6635
2023-05-19T08:38:50.117Z,79.7771
2023-05-19T08:39:51.327Z,80.4427
2023-05-19T08:40:51.735Z,79.7461
2023-05-19T08:52:19.439Z,75.7047
2023-05-19T08:54:19.789Z,75.6267
2023-05-19T08:55:20.777Z,78.0839
2023-05-19T08:56:21.872Z,77.4123
2023-05-19T08:57:22.927Z,76.6793
2023-05-19T08:58:23.765Z,75.4212
2023-05-19T08:59:24.600Z,73.5373
2023-05-19T09:00:25.689Z,74.4976
2023-05-19T09:01:25.938Z,73.3519
2023-05-19T09:02:27.057Z,75.6451
2023-05-19T09:03:28.691Z,72.6938
2023-05-19T09:04:29.994Z,74.8498
2023-05-19T09:05:29.465Z,74.5845
2023-05-19T09:06:30.187Z,76.0016
2023-05-19T09:07:31.459Z,75.0813
2023-05-19T09:08:32.582Z,75.8223
2023-05-19T09:09:32.753Z,78.5625
2023-05-19T09:10:33.476Z,79.2972
2023-05-19T09:11:33.616Z,77.5878
2023-05-19T09:12:34.824Z,77.8840
2023-05-19T09:13:36.007Z,75.7149
2023-05-19T09:14:37.208Z,75.7007
2023-05-19T09:32:51.180Z,77.7086
2023-05-19T09:33:51.426Z,78.5564
2023-05-19T09:34:52.551Z,77.3857
2023-05-19T09:35:52.684Z,77.7642
2023-05-19T09:36:53.861Z,78.6388
2023-05-19T09:37:54.132Z,80.1314
2023-05-19T09:38:55.160Z,77.8954
2023-05-19T09:39:56.112Z,77.1673
2023-05-19T09:40:57.048Z,77.2887
2023-05-19T09:41:58.065Z,75.6176
2023-05-19T09:42:59.133Z,77.8723
2023-05-19T09:44:00.189Z,74.5221
2023-05-19T09:45:01.270Z,75.6601
2023-05-19T09:46:02.288Z,77.5102
2023-05-19T09:47:03.246Z,73.8548
2023-05-19T09:48:04.171Z,75.2613
2023-05-19T09:49:04.186Z,74.5595
2023-05-19T09:50:05.089Z,77.5792
2023-05-19T09:51:06.206Z,74.6698
2023-05-19T09:52:07.214Z,77.3929
2023-05-19T09:53:08.191Z,73.4488
2023-05-19T09:54:08.298Z,73.0814
2023-05-19T09:55:09.342Z,75.2826
2023-05-19T09:56:09.365Z,74.3488
2023-05-19T09:57:10.384Z,74.3999
2023-05-19T10:20:28.893Z,72.2127
2023-05-19T10:21:30.063Z,75.8933
2023-05-19T10:22:31.270Z,74.3381
2023-05-19T10:23:32.049Z,73.0365
2023-05-19T10:24:33.162Z,74.3223
2023-05-19T10:25:34.425Z,76.0061
2023-05-19T10:26:34.331Z,72.7617
2023-05-19T10:27:35.271Z,72.8730
2023-05-19T10:28:36.190Z,74.2208
2023-05-19T10:29:37.098Z,72.6014
2023-05-19T10:30:38.150Z,72.0865
2023-05-19T10:31:39.319Z,73.0042
2023-05-19T10:32:39.397Z,72.3559
2023-05-19T10:33:40.432Z,72.8348
2023-05-19T10:34:41.277Z,74.1785
2023-05-19T10:35:42.199Z,73.5113
2023-05-19T10:36:42.266Z,73.5370
2023-05-19T10:37:43.449Z,72.5235
2023-05-19T10:38:44.527Z,74.0533
2023-05-19T10:39:45.094Z,74.5963
2023-05-19T10:40:46.093Z,74.8294
2023-05-19T10:41:47.063Z,73.5799
2023-05-19T10:42:46.928Z,75.2530
2023-05-19T10:43:48.182Z,76.8052
2023-05-19T10:44:48.733Z,75.5093
2023-05-19T10:45:48.944Z,75.3645
2023-05-19T10:46:49.474Z,77.5570
2023-05-19T11:03:04.226Z,70.9307
2023-05-19T11:04:05.989Z,71.2001
2023-05-19T11:05:06.457Z,73.1706
2023-05-19T11:06:07.481Z,70.5269
2023-05-19T11:07:08.644Z,75.5899
2023-05-19T11:08:09.668Z,73.0458
2023-05-19T11:09:10.695Z,73.4769
2023-05-19T11:10:10.895Z,75.3805
2023-05-19T11:11:11.829Z,73.2768
2023-05-19T11:12:12.754Z,71.5552
2023-05-19T11:13:14.909Z,72.2538
2023-05-19T11:14:14.737Z,73.5857
2023-05-19T11:15:15.718Z,74.3372
2023-05-19T11:16:16.889Z,75.2968
2023-05-19T11:17:18.078Z,72.3526
2023-05-19T11:18:18.785Z,71.2973
2023-05-19T11:19:20.002Z,71.0877
2023-05-19T11:20:20.109Z,74.3772
2023-05-19T11:21:21.227Z,70.9389
2023-05-19T11:22:22.152Z,68.6081
2023-05-19T11:23:23.442Z,71.7776
2023-05-19T11:24:23.448Z,69.2237
2023-05-19T11:25:24.435Z,70.2101
2023-05-19T11:26:25.271Z,71.2179
2023-05-19T11:27:26.153Z,73.4923
2023-05-19T11:28:26.992Z,72.5002
2023-05-19T11:29:27.858Z,73.4843
2023-05-19T11:30:28.849Z,72.7203
2023-05-19T11:31:29.777Z,72.0241
2023-05-19T11:32:30.955Z,72.7176
2023-05-19T11:33:30.813Z,72.8462
2023-05-19T11:34:31.673Z,73.2233
2023-05-19T11:35:35.444Z,74.0680
2023-05-19T11:36:32.809Z,72.7898
2023-05-19T11:37:33.576Z,73.1182
2023-05-19T11:38:34.388Z,74.0355
2023-05-19T11:39:35.401Z,71.1436
2023-05-19T11:40:36.222Z,70.1887
2023-05-19T11:41:37.267Z,67.6498
2023-05-19T11:42:38.268Z,67.4622
2023-05-19T11:43:39.275Z,66.7543
2023-05-19T11:44:40.482Z,65.9168
2023-05-19T11:45:41.188Z,65.5300
2023-05-19T11:46:42.352Z,66.5895
2023-05-19T11:48:00.895Z,67.1838
2023-05-19T11:48:44.021Z,66.0189
2023-05-19T11:49:44.862Z,66.9303
2023-05-19T11:50:45.896Z,66.6061
2023-05-19T11:51:47.015Z,69.7030
2023-05-19T11:52:48.180Z,67.9339
2023-05-19T11:53:48.381Z,64.5313
2023-05-19T11:54:49.442Z,66.8932
2023-05-19T11:55:50.932Z,64.4780
2023-05-19T11:56:50.775Z,66.0924
2023-05-19T11:58:02.903Z,66.5455
2023-05-19T11:58:52.374Z,67.3507
2023-05-19T11:59:53.392Z,63.9025
2023-05-19T12:00:54.448Z,63.6956
2023-05-19T12:01:54.612Z,66.1997
2023-05-19T12:02:54.707Z,63.3692
2023-05-19T12:03:54.796Z,64.6371
2023-05-19T12:04:55.831Z,65.2935
2023-05-19T12:05:56.618Z,61.0080
2023-05-19T12:06:56.459Z,62.9389
2023-05-19T12:07:57.674Z,64.4185
2023-05-19T12:08:58.609Z,62.7230
2023-05-19T12:09:59.670Z,64.4898
2023-05-19T12:11:00.531Z,65.2398
2023-05-19T12:12:01.493Z,68.5673
2023-05-19T12:13:02.441Z,66.2806
2023-05-19T12:14:03.411Z,63.1727
2023-05-19T12:15:04.334Z,66.7281
2023-05-19T12:16:05.402Z,66.5226
2023-05-19T12:17:06.533Z,66.6179
2023-05-19T12:18:07.748Z,68.7500
2023-05-19T12:19:08.678Z,67.0600
2023-05-19T12:20:09.916Z,65.8305
2023-05-19T12:21:09.877Z,67.4794
2023-05-19T12:22:10.058Z,67.4173
2023-05-19T12:23:10.082Z,69.5557
2023-05-19T12:24:10.878Z,66.5443
2023-05-19T12:25:11.778Z,65.3518
2023-05-19T12:26:11.881Z,67.0190
2023-05-19T12:27:12.987Z,65.7156
2023-05-19T12:28:14.808Z,66.3804
2023-05-19T12:38:22.091Z,66.2815
2023-05-19T12:39:22.985Z,65.5941
2023-05-19T12:40:24.056Z,63.0023
2023-05-19T12:41:25.228Z,65.6830
2023-05-19T12:42:26.152Z,66.5856
2023-05-19T12:43:27.320Z,66.6660
2023-05-19T12:44:28.301Z,67.4773
2023-05-19T12:45:29.174Z,67.5411
2023-05-19T12:46:30.406Z,66.9271
2023-05-19T12:47:31.353Z,68.3860
2023-05-19T12:48:31.436Z,68.8361
2023-05-19T12:49:32.518Z,68.5938
2023-05-19T12:50:32.966Z,68.0660
2023-05-19T12:51:33.494Z,68.4727
2023-05-19T12:52:34.149Z,71.2918
2023-05-19T12:53:35.080Z,69.1693
2023-05-19T12:54:36.296Z,68.3377
2023-05-19T12:57:37.457Z,68.6961
2023-05-19T12:58:37.496Z,71.3782
2023-05-19T12:59:38.992Z,69.0463
2023-05-19T13:00:39.150Z,69.9997
2023-05-19T13:01:40.581Z,68.7153
2023-05-19T13:02:41.543Z,67.0996
2023-05-19T13:03:42.060Z,68.9651
2023-05-19T13:04:43.173Z,69.8733
2023-05-19T13:05:44.218Z,70.4357
2023-05-19T13:06:45.168Z,66.9296
2023-05-19T13:07:45.979Z,65.0703
2023-05-19T13:08:46.823Z,65.7921
2023-05-19T13:09:47.055Z,67.6026
2023-05-19T13:10:47.935Z,68.8819
2023-05-19T13:11:48.835Z,66.4094
2023-05-19T13:12:49.849Z,70.4784
2023-05-19T13:13:49.962Z,71.8109
2023-05-19T13:14:51.660Z,68.7538
2023-05-19T13:15:51.191Z,70.9464
2023-05-19T13:16:52.275Z,69.6940
2023-05-19T13:17:53.273Z,72.4448
2023-05-19T13:18:53.670Z,74.2907
2023-05-19T13:19:54.382Z,72.3764
2023-05-19T13:20:55.314Z,73.6284
2023-05-19T13:21:56.467Z,74.3490
2023-05-19T13:22:57.418Z,75.0563
2023-05-19T13:23:58.486Z,74.3649
2023-05-19T13:24:59.442Z,73.7484
2023-05-19T13:26:00.053Z,72.9989
2023-05-19T13:27:00.263Z,73.5771
2023-05-19T13:28:01.560Z,72.5484
2023-05-19T13:29:02.502Z,72.7644
2023-05-19T13:30:03.418Z,72.2454
2023-05-19T13:31:04.425Z,71.4108
2023-05-19T13:32:04.397Z,70.7662
2023-05-19T13:33:05.652Z,69.8922
2023-05-19T13:34:06.204Z,71.6449
2023-05-19T13:35:07.004Z,74.9421
2023-05-19T13:36:07.378Z,71.7449
2023-05-19T13:48:16.355Z,72.9383
2023-05-19T13:49:17.360Z,72.4000
2023-05-19T13:50:18.344Z,71.1614
2023-05-19T13:51:19.302Z,71.1975
2023-05-19T13:52:20.380Z,71.8744
2023-05-19T13:53:21.450Z,73.0799
2023-05-19T13:54:22.677Z,71.5009
2023-05-19T13:55:23.729Z,72.5453
2023-05-19T13:56:24.555Z,72.2122
2023-05-19T13:57:25.505Z,74.6431
2023-05-19T13:58:26.438Z,73.2522
2023-05-19T13:59:27.448Z,72.0281
2023-05-19T14:00:27.865Z,72.3259
2023-05-19T14:01:28.022Z,73.5083
2023-05-19T14:13:43.685Z,77.1661
2023-05-19T14:14:43.699Z,75.9975
2023-05-19T14:15:43.794Z,76.0285
2023-05-19T14:16:45.300Z,74.6217
2023-05-19T14:17:46.390Z,75.7522
2023-05-19T14:18:46.475Z,77.6644
2023-05-19T14:19:47.658Z,75.6522
2023-05-19T14:20:48.676Z,75.6217
2023-05-19T14:21:49.687Z,76.1816
2023-05-19T14:22:50.675Z,74.9380
2023-05-19T14:23:51.919Z,75.8980
2023-05-19T14:24:52.680Z,73.1877
2023-05-19T14:25:53.777Z,74.0406
2023-05-19T14:26:53.899Z,73.3197
2023-05-19T14:27:55.044Z,72.6368
2023-05-19T14:28:56.247Z,74.1215
2023-05-19T14:29:57.138Z,81.6181
2023-05-19T14:30:57.272Z,76.3111
2023-05-19T14:31:58.555Z,76.7444
2023-05-19T14:32:59.589Z,75.4409
2023-05-19T14:34:00.786Z,74.7539
2023-05-19T14:35:01.727Z,73.1970
2023-05-19T14:36:02.783Z,72.8564
2023-05-19T14:37:03.840Z,74.5475
2023-05-19T14:38:04.998Z,73.5924
2023-05-19T14:39:05.771Z,75.0834
2023-05-19T14:40:08.813Z,73.7203
2023-05-19T14:45:10.230Z,74.5784
2023-05-19T15:16:34.241Z,74.4849
2023-05-19T15:17:35.498Z,76.5562
2023-05-19T15:18:36.662Z,75.1493
2023-05-19T15:19:36.894Z,75.1099
2023-05-19T15:20:40.278Z,72.2522
2023-05-19T15:21:40.550Z,74.4487
2023-05-19T15:23:41.261Z,76.8951
2023-05-19T15:28:03.122Z,79.6843
2023-05-19T15:29:04.370Z,75.2611
2023-05-19T15:30:05.139Z,76.5951
2023-05-19T15:32:06.197Z,77.1683
2023-05-19T15:34:07.636Z,77.5352
2023-05-19T15:35:07.938Z,79.1654
2023-05-19T15:36:08.221Z,78.0544
2023-05-19T15:37:09.674Z,77.0735
2023-05-19T15:38:09.366Z,74.9823
2023-05-19T15:39:10.697Z,77.2204
2023-05-19T15:40:11.974Z,76.3260
2023-05-19T15:46:15.456Z,75.7690
2023-05-19T15:47:15.968Z,75.2007
2023-05-19T15:48:17.960Z,74.6099
2023-05-19T15:49:18.248Z,75.8659
2023-05-19T15:52:21.286Z,76.0431
2023-05-19T15:53:22.558Z,77.0343
2023-05-19T15:54:23.332Z,76.1806
2023-05-19T15:55:24.150Z,74.6653
2023-05-19T15:56:24.263Z,76.6317
2023-05-19T15:57:25.356Z,76.5030
2023-05-19T15:58:26.185Z,76.1335
2023-05-19T15:59:27.389Z,74.2218
2023-05-19T16:01:28.122Z,77.3825
2023-05-19T16:03:27.714Z,79.2736
2023-05-19T16:04:28.788Z,73.8738
2023-05-19T16:05:29.093Z,74.3468
2023-05-19T16:06:30.079Z,76.3687
2023-05-19T16:07:30.475Z,73.8859
2023-05-19T16:08:31.009Z,77.3736
2023-05-19T16:09:32.227Z,76.3847
2023-05-19T16:10:32.898Z,76.2025
2023-05-19T16:12:33.824Z,75.5479
2023-05-19T16:13:35.112Z,75.3893
2023-05-19T16:15:35.602Z,74.1138
2023-05-19T16:16:37.052Z,73.3735
2023-05-19T16:17:36.848Z,73.5078
2023-05-19T16:18:38.378Z,72.3195
2023-05-19T16:19:38.385Z,74.1334
2023-05-19T16:21:39.128Z,73.0043
2023-05-19T16:32:44.369Z,73.8117
2023-05-19T16:33:44.597Z,72.9630
2023-05-19T16:34:45.581Z,75.6087
2023-05-19T16:36:46.830Z,74.0024
2023-05-19T16:38:47.891Z,76.2769
2023-05-19T16:39:48.370Z,77.8522
2023-05-19T16:45:52.597Z,74.1815
2023-05-19T16:46:53.309Z,75.2686
2023-05-19T16:47:54.677Z,76.0582
2023-05-19T16:48:55.825Z,77.4261
2023-05-19T16:49:56.017Z,77.8286
2023-05-19T16:51:57.154Z,76.5907
2023-05-19T16:52:57.500Z,75.8254
2023-05-19T16:53:57.664Z,78.2398
2023-05-19T16:56:00.451Z,76.8629
2023-05-19T16:57:01.493Z,77.7463
2023-05-19T16:59:02.118Z,75.7677
2023-05-19T17:00:03.302Z,80.9416
2023-05-19T17:01:03.774Z,76.9239
2023-05-19T17:02:05.117Z,76.4661
2023-05-19T17:03:05.368Z,77.6866
2023-05-19T17:04:05.577Z,76.6429
2023-05-19T17:05:07.186Z,78.3780
2023-05-19T17:06:07.431Z,75.9578
2023-05-19T17:08:08.374Z,78.8675
2023-05-19T17:09:09.267Z,76.7673
2023-05-19T17:10:10.599Z,75.8029
2023-05-19T17:11:11.458Z,77.6530
2023-05-19T17:12:11.808Z,76.9957
2023-05-19T17:13:12.995Z,75.7184
2023-05-19T17:14:14.205Z,77.6302
2023-05-19T17:15:15.035Z,76.9115
2023-05-19T17:16:15.913Z,76.3049
2023-05-19T17:17:16.045Z,76.7265
2023-05-19T17:18:16.880Z,76.3178
2023-05-19T17:19:17.836Z,76.4914
2023-05-19T17:20:18.382Z,76.4768
2023-05-19T17:21:19.589Z,76.1856
2023-05-19T17:22:20.178Z,78.0421
2023-05-19T17:23:20.867Z,77.5766
2023-05-19T17:24:21.775Z,75.9751
2023-05-19T17:25:22.146Z,75.8841
2023-05-19T17:26:23.153Z,76.2979
2023-05-19T17:27:24.039Z,75.6660
2023-05-19T17:32:26.185Z,78.0287
2023-05-19T17:34:27.470Z,79.4054
2023-05-19T17:35:28.657Z,79.0264
2023-05-19T17:36:29.042Z,79.9629
2023-05-19T17:37:30.524Z,77.3949
2023-05-19T17:40:32.008Z,76.9022
2023-05-19T17:42:32.547Z,77.5629
2023-05-19T17:43:32.809Z,77.0907
2023-05-19T17:45:36.439Z,80.3167
2023-05-19T17:54:41.864Z,80.2378
2023-05-19T17:55:42.398Z,77.8471
2023-05-19T17:56:43.939Z,76.4861
2023-05-19T17:57:45.662Z,78.5951
2023-05-19T17:58:45.975Z,78.9081
2023-05-19T17:59:46.099Z,79.0714
2023-05-19T18:00:47.752Z,78.0731
2023-05-19T18:01:47.913Z,79.1710
2023-05-19T18:02:48.404Z,76.8928
2023-05-19T18:03:50.013Z,77.9759
2023-05-19T18:08:52.853Z,77.4170
2023-05-19T18:09:53.215Z,76.3588
2023-05-19T18:11:56.193Z,76.9904
2023-05-19T18:12:57.428Z,78.4423
2023-05-19T18:14:59.101Z,76.8163
2023-05-19T18:16:00.268Z,76.7181
2023-05-19T18:17:00.519Z,77.2071
2023-05-19T18:18:01.099Z,76.9342
2023-05-19T18:19:01.952Z,76.1950
2023-05-19T18:30:09.731Z,77.2678
2023-05-19T18:31:10.669Z,78.7732
2023-05-19T18:32:11.097Z,78.6921
2023-05-19T18:33:12.109Z,78.9943
2023-05-19T18:34:11.496Z,77.7856
2023-05-19T18:35:12.644Z,79.0252
2023-05-19T18:36:13.963Z,77.4432
2023-05-19T18:37:14.920Z,77.9237
2023-05-19T18:38:15.103Z,79.9790
2023-05-19T18:39:16.115Z,78.9036
2023-05-19T18:40:16.550Z,78.3848
2023-05-19T18:41:16.820Z,77.1469
2023-05-19T18:43:20.345Z,78.2133
2023-05-19T18:44:21.438Z,77.8171
2023-05-19T18:53:28.614Z,78.9314
2023-05-19T18:54:29.595Z,79.0508
2023-05-19T18:56:30.283Z,79.6862
2023-05-19T18:57:30.793Z,80.2129
2023-05-19T18:59:33.852Z,80.0994
2023-05-19T19:00:35.269Z,79.3022
2023-05-19T19:01:35.292Z,81.7250
2023-05-19T19:02:36.335Z,81.8716
2023-05-19T19:03:37.781Z,82.2156
2023-05-19T19:04:38.247Z,78.4683
2023-05-19T19:05:39.609Z,80.3847
2023-05-19T19:06:42.014Z,79.7473
2023-05-19T19:15:47.580Z,81.7988
2023-05-19T19:16:48.699Z,82.2758
2023-05-19T19:17:49.625Z,80.2760
2023-05-19T19:18:50.687Z,82.1287
2023-05-19T19:19:51.281Z,81.0725
2023-05-19T19:20:51.487Z,81.1351
2023-05-19T19:21:52.365Z,81.3121
2023-05-19T19:22:52.750Z,80.5138
2023-05-19T19:23:53.946Z,80.2080
2023-05-19T19:24:55.121Z,80.4059
2023-05-19T19:25:55.653Z,80.2818
2023-05-19T19:26:57.080Z,80.4246
2023-05-19T19:27:57.322Z,79.1536
2023-05-19T19:28:57.414Z,80.4939
2023-05-19T19:29:58.302Z,82.6300
2023-05-19T19:36:03.797Z,81.5395
2023-05-19T19:37:05.272Z,80.9382
2023-05-19T19:39:06.154Z,80.9930
2023-05-19T19:40:06.243Z,84.1615
2023-05-19T19:41:07.240Z,80.6432
2023-05-19T19:42:08.415Z,80.9880
2023-05-19T19:43:09.064Z,82.3007
2023-05-19T19:44:10.290Z,81.5574
2023-05-19T19:45:12.496Z,81.0516
2023-05-19T19:46:12.271Z,80.8782
2023-05-19T19:47:12.783Z,82.0241
2023-05-19T19:48:13.091Z,84.0140
2023-05-19T19:49:13.959Z,82.2899
2023-05-19T19:50:15.061Z,83.7378
2023-05-19T19:51:16.294Z,85.6663
2023-05-19T19:52:17.636Z,86.0809
2023-05-19T19:58:21.215Z,83.6699
2023-05-19T19:59:21.571Z,83.7214
2023-05-19T20:00:22.403Z,81.7328
2023-05-19T20:01:22.869Z,83.3644